KHRI

Hermiston Municipal Airport

Hermiston, Oregon, USA
METAR KHRI 172153Z AUTO 27011KT 10SM CLR 32/M01 A3001 RMK AO2 SLP156 T03221006
Observed Flight Rules
Aug-17 @ 21:53 UTC (43 minutes ago) Visual Flight Rules
Wind Visibility Clouds
270° at 11 knots 10 miles
  • Clear skies
Temperatures Readings
Current 32°C / 90°F
Dewpoint -1°C / 30°F
Humidity 12%
Altimeter 30.01" Hg
Pressure 1015.6 hPa
Elevation 195
METAR KHRI 172153Z AUTO 27011KT 10SM CLR 32/M01 A3001 RMK AO2 SLP156 T03221006
Observed Flight Rules
Aug-17 @ 21:53 UTC
(43 minutes ago)
VFR
Wind Visibility
270° at 11 knots 10 miles
Clouds
  • Clear skies
Temperature Dewpoint
32°C / 90°F -1°C / 30°F
Humidity Altimeter Pressure
12% 30.01" Hg 1015.6 hPa